Latest Coastal Weather Observations for Thevenard

IDS60701

Issued at 12:01 am CST Monday 15 April 2024 (issued every 10 minutes, with the page automatically refreshed every 10 minutes)

About coastal observations | Map of coastal stations | Coastal observations for SA | Marine services | Other Formats
Station Details ID: 018207 Name: THEVENARD NTC AWS Lat: -32.15 Lon: 133.64 Height: 5.0 m
Data from the previous 72 hours. | See also: Recent months for locations in South Australia
Date/Time
CST
Wind Sea
Height
m
Swell Vis
km
Cloud Weather Temp
°C
Press
MSL
hPa
Rain since
9am
mm
Dir  Spd
kts
Gust
kts
Height
m
Period
s
Dir
15/12:00am SSE 11 13 - - - - - - - 15.7 1023.7 -
 
Date/Time
CST
Wind Sea
Height
m
Swell Vis
km
Cloud Weather Temp
°C
Press
MSL
hPa
Rain since
9am
mm
Dir  Spd
kts
Gust
kts
Height
m
Period
s
Dir
14/11:30pm SSE 10 13 - - - - - - - 15.8 1023.8 -
14/11:00pm SSE 9 13 - - - - - - - 15.9 1023.9 -
14/10:30pm SSE 11 13 - - - - - - - 16.0 1024.0 -
14/10:00pm SSE 8 12 - - - - - - - 16.0 1023.9 -
14/09:30pm SSE 10 13 - - - - - - - 16.2 1023.7 -
14/09:00pm SSE 11 15 - - - - - - - 16.1 1023.6 -
14/08:30pm SSE 10 14 - - - - - - - 16.2 1023.5 -
14/08:00pm SSE 9 15 - - - - - - - 16.4 1023.5 -
14/07:30pm SSE 10 14 - - - - - - - 16.5 1023.2 -
14/07:00pm SSE 7 12 - - - - - - - 16.4 1022.9 -
14/06:30pm SSE 5 9 - - - - - - - 16.4 1022.7 -
14/06:00pm SSE 5 9 - - - - - - - 16.4 1022.5 -
14/05:30pm SSE 5 8 - - - - - - - 16.4 1022.4 -
14/05:00pm SSE 4 9 - - - - - - - 16.6 1022.1 -
14/04:30pm SSE 4 8 - - - - - - - 16.6 1021.9 -
14/04:00pm SSE 4 9 - - - - - - - 16.3 1021.7 -
14/03:30pm SSE 3 8 - - - - - - - 16.3 1021.6 -
14/03:00pm WSW 2 5 - - - - - - - 16.9 1021.8 -
14/02:30pm WSW 4 7 - - - - - - - 16.5 1021.7 -
14/02:00pm WSW 8 13 - - - - - - - 16.3 1021.8 -
14/01:30pm WSW 7 12 - - - - - - - 17.7 1021.9 -
14/01:00pm WSW 3 6 - - - - - - - 18.2 1022.1 -
14/12:30pm CALM 0 2 - - - - - - - 19.3 1022.3 -
14/12:00pm CALM 0 1 - - - - - - - 17.6 1022.7 -
14/11:30am CALM 0 0 - - - - - - - 17.0 1023.1 -
14/11:00am WNW 1 2 - - - - - - - 16.0 1023.3 -
14/10:30am NNW 2 4 - - - - - - - 14.9 1023.3 -
14/10:00am N 3 6 - - - - - - - 14.3 1023.3 -
14/09:30am NE 3 5 - - - - - - - 13.8 1023.5 -
14/09:00am NE 2 5 - - - - - - - 13.3 1023.5 -
14/08:30am SE 3 5 - - - - - - - 12.6 1022.9 -
14/08:00am SE 3 5 - - - - - - - 12.4 1022.7 -
14/07:30am SE 4 5 - - - - - - - 12.0 1022.2 -
14/07:00am ESE 2 4 - - - - - - - 12.0 1021.7 -
14/06:30am E 1 3 - - - - - - - 12.2 1021.4 -
14/06:00am ESE 3 5 - - - - - - - 12.4 1021.4 -
14/05:30am ESE 4 7 - - - - - - - 12.6 1021.2 -
14/05:00am ESE 5 8 - - - - - - - 13.4 1021.0 -
14/04:30am ESE 6 9 - - - - - - - 13.2 1020.9 -
14/04:00am ESE 4 7 - - - - - - - 13.4 1020.9 -
14/03:30am ESE 2 4 - - - - - - - 13.4 1021.2 -
14/03:00am E 1 3 - - - - - - - 13.2 1021.2 -
14/02:30am E 2 4 - - - - - - - 13.3 1021.6 -
14/02:00am ENE 3 4 - - - - - - - 13.1 1021.9 -
14/01:30am ESE 3 5 - - - - - - - 14.5 1022.1 -
14/01:00am SE 5 7 - - - - - - - 14.5 1022.1 -
14/12:30am ESE 6 9 - - - - - - - 14.6 1022.1 -
14/12:00am SE 7 10 - - - - - - - 14.7 1022.1 -
 
Date/Time
CST
Wind Sea
Height
m
Swell Vis
km
Cloud Weather Temp
°C
Press
MSL
hPa
Rain since
9am
mm
Dir  Spd
kts
Gust
kts
Height
m
Period
s
Dir
13/11:30pm ESE 5 7 - - - - - - - 14.3 1022.4 -
13/11:00pm SE 11 15 - - - - - - - 15.7 1022.8 -
13/10:30pm SSE 14 18 - - - - - - - 15.8 1022.6 -
13/10:00pm SSE 15 19 - - - - - - - 15.8 1022.8 -
13/09:30pm SSE 12 18 - - - - - - - 16.3 1022.9 -
13/09:00pm SSE 13 17 - - - - - - - 16.0 1022.8 -
13/08:30pm SSE 13 18 - - - - - - - 15.9 1022.4 -
13/08:00pm SSE 13 19 - - - - - - - 16.1 1022.3 -
13/07:30pm SSE 15 21 - - - - - - - 15.7 1021.8 -
13/07:00pm SSE 15 21 - - - - - - - 16.0 1021.6 -
13/06:30pm SSE 11 19 - - - - - - - 16.0 1021.5 -
13/06:00pm SSE 7 14 - - - - - - - 16.1 1021.6 -
13/05:30pm SSE 7 15 - - - - - - - 16.1 1021.3 -
13/05:00pm SSE 7 14 - - - - - - - 16.2 1021.2 -
13/04:30pm S 5 13 - - - - - - - 16.3 1021.2 -
13/04:00pm SSW 4 11 - - - - - - - 16.5 1021.4 -
13/03:30pm S 4 10 - - - - - - - 16.7 1021.4 -
13/03:00pm SSW 4 10 - - - - - - - 16.7 1021.5 -
13/02:30pm SSW 4 11 - - - - - - - 17.1 1021.6 -
13/02:00pm SSW 3 10 - - - - - - - 17.1 1021.7 -
13/01:30pm SSW 4 10 - - - - - - - 16.8 1022.0 -
13/01:00pm SSW 3 9 - - - - - - - 16.8 1022.5 -
13/12:30pm SSW 3 9 - - - - - - - 16.9 1023.1 -
13/12:00pm S 3 8 - - - - - - - 16.7 1023.9 -
13/11:30am SSE 4 9 - - - - - - - 16.4 1024.3 -
13/11:00am SSE 3 7 - - - - - - - 16.1 1024.5 -
13/10:30am SE 6 8 - - - - - - - 16.9 1025.1 -
13/10:00am SE 7 10 - - - - - - - 15.8 1025.4 -
13/09:30am SE 8 11 - - - - - - - 15.2 1025.5 -
13/09:00am SE 9 12 - - - - - - - 13.9 1025.4 -
13/08:30am SE 8 11 - - - - - - - 12.9 1025.2 -
13/08:00am SE 10 13 - - - - - - - 12.6 1024.8 -
13/07:30am SE 10 14 - - - - - - - 12.1 1024.5 -
13/07:00am SE 10 14 - - - - - - - 12.3 1024.2 -
13/06:30am ESE 10 14 - - - - - - - 12.4 1024.1 -
13/06:00am SE 10 14 - - - - - - - 12.6 1024.1 -
13/05:30am SE 10 13 - - - - - - - 12.8 1024.1 -
13/05:00am SE 12 17 - - - - - - - 13.4 1024.0 -
13/04:30am SE 13 17 - - - - - - - 13.7 1023.7 -
13/04:00am SE 13 18 - - - - - - - 14.3 1023.7 -
13/03:30am SE 12 16 - - - - - - - 14.9 1023.6 -
13/03:00am SE 11 17 - - - - - - - 15.0 1023.7 -
13/02:30am SE 12 16 - - - - - - - 15.1 1023.9 -
13/02:00am SE 10 14 - - - - - - - 15.2 1024.2 -
13/01:30am SE 14 18 - - - - - - - 15.4 1024.0 -
13/01:00am SSE 14 18 - - - - - - - 15.7 1024.2 -
13/12:30am SSE 16 20 - - - - - - - 15.6 1024.2 -
13/12:00am SSE 15 19 - - - - - - - 15.8 1024.6 -
 
Date/Time
CST
Wind Sea
Height
m
Swell Vis
km
Cloud Weather Temp
°C
Press
MSL
hPa
Rain since
9am
mm
Dir  Spd
kts
Gust
kts
Height
m
Period
s
Dir
12/11:30pm SSE 13 17 - - - - - - - 15.9 1024.5 -
12/11:00pm SSE 15 19 - - - - - - - 15.9 1024.6 -
12/10:30pm SSE 16 20 - - - - - - - 16.2 1024.3 -
12/10:00pm SSE 14 20 - - - - - - - 16.3 1024.3 -
12/09:30pm SSE 14 20 - - - - - - - 16.1 1024.2 -
12/09:00pm SSE 13 19 - - - - - - - 16.1 1024.0 -
12/08:30pm SSE 11 19 - - - - - - - 16.2 1023.8 -
12/08:00pm SSE 11 20 - - - - - - - 16.2 1023.8 -
12/07:30pm SSE 8 15 - - - - - - - 16.3 1023.5 -
12/07:00pm SSE 9 16 - - - - - - - 16.4 1023.4 -
12/06:30pm SSE 9 17 - - - - - - - 16.3 1023.0 -
12/06:00pm SSE 8 16 - - - - - - - 16.5 1022.9 -
12/05:30pm SSE 10 17 - - - - - - - 16.7 1022.8 -
12/05:00pm SSE 8 15 - - - - - - - 16.6 1022.7 -
12/04:30pm S 6 13 - - - - - - - 16.6 1022.8 -
12/04:00pm S 6 13 - - - - - - - 16.6 1022.6 -
12/03:30pm S 4 12 - - - - - - - 16.5 1022.5 -
12/03:00pm SSW 4 10 - - - - - - - 16.6 1022.8 -
12/02:30pm SSW 3 9 - - - - - - - 16.6 1022.9 -
12/02:00pm SSW 4 9 - - - - - - - 16.4 1022.9 -
12/01:30pm SSW 3 9 - - - - - - - 16.6 1023.2 -
12/01:00pm S 4 10 - - - - - - - 16.7 1023.5 -
12/12:30pm SSE 4 9 - - - - - - - 16.6 1024.2 -
12/12:00pm SSE 5 11 - - - - - - - 16.5 1024.5 -
12/11:30am SSE 4 9 - - - - - - - 16.3 1025.0 -
12/11:00am SSE 8 10 - - - - - - - 16.6 1025.3 -
12/10:30am SE 9 11 - - - - - - - 16.2 1025.6 -
12/10:00am ESE 8 11 - - - - - - - 15.7 1025.7 -

Other formats

Comma delimited format used in spreadsheet applications
http://www.bom.gov.au/fwo/IDS60701/IDS60701.95652.axf

JavaScript Object Notation format (JSON) in row-major order
http://www.bom.gov.au/fwo/IDS60701/IDS60701.95652.json

Data quality

Most of these data are generated automatically and are frequently updated. Quality checks on data are not normally performed. It is possible for incorrect values to appear. Refer to information at About Latest Weather Observations and please check the disclaimer before using these data.